<?xml version="1.0" encoding="UTF-8" standalone="no" ?>
<gpx xmlns="http://www.topografix.com/GPX/1/1" xmlns:xsi="http://www.w3.org/2001/XMLSchema-instance" xsi:schemaLocation="http://www.topografix.com/GPX/1/1 http://www.topografix.com/GPX/1/1/gpx.xsd" version="1.1" creator="VisuGPX - https://www.visugpx.com">
  <metadata>
    <name>14241103-Bruno</name>
  </metadata>
  <trk>
    <name><![CDATA[14241103-Bruno]]></name>
    <extensions>
      <line xmlns="http://www.topografix.com/GPX/gpx_style/0/2">
        <color>0000FF</color>
        <width>4</width>
      </line>
    </extensions>
    <trkseg>
      <trkpt lat="48.75059" lon="2.06185">
        <ele>165</ele>
        <time>2022-02-13T10:50:19Z</time>
      </trkpt>
      <trkpt lat="48.75028" lon="2.06026">
        <ele>166</ele>
        <time>2022-02-13T10:52:45Z</time>
      </trkpt>
      <trkpt lat="48.75059" lon="2.05943">
        <ele>170</ele>
        <time>2022-02-13T10:54:09Z</time>
      </trkpt>
      <trkpt lat="48.7506" lon="2.05887">
        <ele>171</ele>
        <time>2022-02-13T10:54:58Z</time>
      </trkpt>
      <trkpt lat="48.74948" lon="2.05828">
        <ele>160</ele>
        <time>2022-02-13T10:57:36Z</time>
      </trkpt>
      <trkpt lat="48.75003" lon="2.05551">
        <ele>165</ele>
        <time>2022-02-13T11:01:51Z</time>
      </trkpt>
      <trkpt lat="48.7499" lon="2.05456">
        <ele>162</ele>
        <time>2022-02-13T11:03:16Z</time>
      </trkpt>
      <trkpt lat="48.74971" lon="2.05315">
        <ele>153</ele>
        <time>2022-02-13T11:05:23Z</time>
      </trkpt>
      <trkpt lat="48.75042" lon="2.05174">
        <ele>154</ele>
        <time>2022-02-13T11:07:59Z</time>
      </trkpt>
      <trkpt lat="48.74949" lon="2.05127">
        <ele>139</ele>
        <time>2022-02-13T11:10:10Z</time>
      </trkpt>
      <trkpt lat="48.74931" lon="2.05231">
        <ele>139</ele>
        <time>2022-02-13T11:11:44Z</time>
      </trkpt>
      <trkpt lat="48.74888" lon="2.05409">
        <ele>140</ele>
        <time>2022-02-13T11:14:31Z</time>
      </trkpt>
      <trkpt lat="48.74901" lon="2.05515">
        <ele>142</ele>
        <time>2022-02-13T11:16:06Z</time>
      </trkpt>
      <trkpt lat="48.74888" lon="2.0565">
        <ele>140</ele>
        <time>2022-02-13T11:18:06Z</time>
      </trkpt>
      <trkpt lat="48.7488" lon="2.05668">
        <ele>138</ele>
        <time>2022-02-13T11:18:25Z</time>
      </trkpt>
      <trkpt lat="48.74842" lon="2.05827">
        <ele>136</ele>
        <time>2022-02-13T11:20:54Z</time>
      </trkpt>
      <trkpt lat="48.74784" lon="2.05985">
        <ele>135</ele>
        <time>2022-02-13T11:23:33Z</time>
      </trkpt>
      <trkpt lat="48.74742" lon="2.06055">
        <ele>131</ele>
        <time>2022-02-13T11:24:56Z</time>
      </trkpt>
      <trkpt lat="48.74719" lon="2.06231">
        <ele>137</ele>
        <time>2022-02-13T11:27:34Z</time>
      </trkpt>
      <trkpt lat="48.74669" lon="2.06314">
        <ele>128</ele>
        <time>2022-02-13T11:29:13Z</time>
      </trkpt>
      <trkpt lat="48.74682" lon="2.06376">
        <ele>134</ele>
        <time>2022-02-13T11:30:10Z</time>
      </trkpt>
      <trkpt lat="48.7464" lon="2.06471">
        <ele>131</ele>
        <time>2022-02-13T11:31:51Z</time>
      </trkpt>
      <trkpt lat="48.74631" lon="2.06519">
        <ele>131</ele>
        <time>2022-02-13T11:32:35Z</time>
      </trkpt>
      <trkpt lat="48.74579" lon="2.06531">
        <ele>122</ele>
        <time>2022-02-13T11:33:45Z</time>
      </trkpt>
      <trkpt lat="48.74445" lon="2.06728">
        <ele>124</ele>
        <time>2022-02-13T11:37:54Z</time>
      </trkpt>
      <trkpt lat="48.74453" lon="2.06773">
        <ele>124</ele>
        <time>2022-02-13T11:38:35Z</time>
      </trkpt>
      <trkpt lat="48.74422" lon="2.0679">
        <ele>124</ele>
        <time>2022-02-13T11:39:19Z</time>
      </trkpt>
      <trkpt lat="48.74344" lon="2.06794">
        <ele>127</ele>
        <time>2022-02-13T11:41:03Z</time>
      </trkpt>
      <trkpt lat="48.74291" lon="2.06768">
        <ele>133</ele>
        <time>2022-02-13T11:42:18Z</time>
      </trkpt>
      <trkpt lat="48.74242" lon="2.0664">
        <ele>136</ele>
        <time>2022-02-13T11:44:28Z</time>
      </trkpt>
      <trkpt lat="48.74242" lon="2.06568">
        <ele>138</ele>
        <time>2022-02-13T11:45:31Z</time>
      </trkpt>
      <trkpt lat="48.74222" lon="2.06437">
        <ele>146</ele>
        <time>2022-02-13T11:47:30Z</time>
      </trkpt>
      <trkpt lat="48.74293" lon="2.06373">
        <ele>148</ele>
        <time>2022-02-13T11:49:20Z</time>
      </trkpt>
      <trkpt lat="48.74345" lon="2.06275">
        <ele>151</ele>
        <time>2022-02-13T11:51:11Z</time>
      </trkpt>
      <trkpt lat="48.74386" lon="2.06155">
        <ele>153</ele>
        <time>2022-02-13T11:53:10Z</time>
      </trkpt>
      <trkpt lat="48.74383" lon="2.06091">
        <ele>154</ele>
        <time>2022-02-13T11:54:06Z</time>
      </trkpt>
      <trkpt lat="48.74147" lon="2.05753">
        <ele>160</ele>
        <time>2022-02-13T12:01:19Z</time>
      </trkpt>
      <trkpt lat="48.73907" lon="2.05567">
        <ele>164</ele>
        <time>2022-02-13T12:07:19Z</time>
      </trkpt>
      <trkpt lat="48.73648" lon="2.05266">
        <ele>165</ele>
        <time>2022-02-13T12:14:34Z</time>
      </trkpt>
      <trkpt lat="48.73378" lon="2.04921">
        <ele>174</ele>
        <time>2022-02-13T12:22:26Z</time>
      </trkpt>
      <trkpt lat="48.73376" lon="2.04762">
        <ele>171</ele>
        <time>2022-02-13T12:24:45Z</time>
      </trkpt>
      <trkpt lat="48.73369" lon="2.04704">
        <ele>172</ele>
        <time>2022-02-13T12:25:37Z</time>
      </trkpt>
      <trkpt lat="48.73359" lon="2.04621">
        <ele>172</ele>
        <time>2022-02-13T12:26:52Z</time>
      </trkpt>
      <trkpt lat="48.73316" lon="2.04503">
        <ele>164</ele>
        <time>2022-02-13T12:28:50Z</time>
      </trkpt>
      <trkpt lat="48.73153" lon="2.04622">
        <ele>165</ele>
        <time>2022-02-13T12:32:52Z</time>
      </trkpt>
      <trkpt lat="48.73115" lon="2.0475">
        <ele>162</ele>
        <time>2022-02-13T12:34:55Z</time>
      </trkpt>
      <trkpt lat="48.7317" lon="2.04905">
        <ele>159</ele>
        <time>2022-02-13T12:37:30Z</time>
      </trkpt>
      <trkpt lat="48.73213" lon="2.05345">
        <ele>160</ele>
        <time>2022-02-13T12:44:02Z</time>
      </trkpt>
      <trkpt lat="48.73164" lon="2.05551">
        <ele>140</ele>
        <time>2022-02-13T12:47:14Z</time>
      </trkpt>
      <trkpt lat="48.73124" lon="2.05528">
        <ele>132</ele>
        <time>2022-02-13T12:48:12Z</time>
      </trkpt>
      <trkpt lat="48.73126" lon="2.05474">
        <ele>134</ele>
        <time>2022-02-13T12:48:59Z</time>
      </trkpt>
      <trkpt lat="48.73015" lon="2.05163">
        <ele>117</ele>
        <time>2022-02-13T12:54:10Z</time>
      </trkpt>
      <trkpt lat="48.73033" lon="2.0526">
        <ele>117</ele>
        <time>2022-02-13T12:55:39Z</time>
      </trkpt>
      <trkpt lat="48.73006" lon="2.05336">
        <ele>113</ele>
        <time>2022-02-13T12:56:55Z</time>
      </trkpt>
      <trkpt lat="48.72946" lon="2.05421">
        <ele>109</ele>
        <time>2022-02-13T12:58:45Z</time>
      </trkpt>
      <trkpt lat="48.72857" lon="2.05477">
        <ele>107</ele>
        <time>2022-02-13T13:00:53Z</time>
      </trkpt>
      <trkpt lat="48.72827" lon="2.05537">
        <ele>108</ele>
        <time>2022-02-13T13:02:00Z</time>
      </trkpt>
      <trkpt lat="48.72845" lon="2.05679">
        <ele>108</ele>
        <time>2022-02-13T13:04:07Z</time>
      </trkpt>
      <trkpt lat="48.72889" lon="2.0577">
        <ele>108</ele>
        <time>2022-02-13T13:05:46Z</time>
      </trkpt>
      <trkpt lat="48.72878" lon="2.05897">
        <ele>112</ele>
        <time>2022-02-13T13:07:39Z</time>
      </trkpt>
      <trkpt lat="48.72825" lon="2.05924">
        <ele>110</ele>
        <time>2022-02-13T13:08:53Z</time>
      </trkpt>
      <trkpt lat="48.72739" lon="2.05944">
        <ele>105</ele>
        <time>2022-02-13T13:10:50Z</time>
      </trkpt>
      <trkpt lat="48.72686" lon="2.06002">
        <ele>110</ele>
        <time>2022-02-13T13:12:17Z</time>
      </trkpt>
      <trkpt lat="48.72616" lon="2.06008">
        <ele>110</ele>
        <time>2022-02-13T13:13:50Z</time>
      </trkpt>
      <trkpt lat="48.72574" lon="2.06055">
        <ele>109</ele>
        <time>2022-02-13T13:15:00Z</time>
      </trkpt>
      <trkpt lat="48.72581" lon="2.06138">
        <ele>112</ele>
        <time>2022-02-13T13:16:14Z</time>
      </trkpt>
      <trkpt lat="48.72556" lon="2.06229">
        <ele>108</ele>
        <time>2022-02-13T13:17:40Z</time>
      </trkpt>
      <trkpt lat="48.72457" lon="2.06323">
        <ele>109</ele>
        <time>2022-02-13T13:20:16Z</time>
      </trkpt>
      <trkpt lat="48.72401" lon="2.06407">
        <ele>118</ele>
        <time>2022-02-13T13:22:02Z</time>
      </trkpt>
      <trkpt lat="48.72382" lon="2.06481">
        <ele>126</ele>
        <time>2022-02-13T13:23:11Z</time>
      </trkpt>
      <trkpt lat="48.72245" lon="2.0664">
        <ele>114</ele>
        <time>2022-02-13T13:27:02Z</time>
      </trkpt>
      <trkpt lat="48.72303" lon="2.06675">
        <ele>126</ele>
        <time>2022-02-13T13:28:25Z</time>
      </trkpt>
      <trkpt lat="48.72353" lon="2.06775">
        <ele>139</ele>
        <time>2022-02-13T13:30:15Z</time>
      </trkpt>
      <trkpt lat="48.72449" lon="2.06856">
        <ele>154</ele>
        <time>2022-02-13T13:32:42Z</time>
      </trkpt>
      <trkpt lat="48.72479" lon="2.06976">
        <ele>150</ele>
        <time>2022-02-13T13:34:35Z</time>
      </trkpt>
      <trkpt lat="48.7252" lon="2.07043">
        <ele>156</ele>
        <time>2022-02-13T13:35:55Z</time>
      </trkpt>
      <trkpt lat="48.72458" lon="2.07185">
        <ele>156</ele>
        <time>2022-02-13T13:38:25Z</time>
      </trkpt>
      <trkpt lat="48.72577" lon="2.07275">
        <ele>165</ele>
        <time>2022-02-13T13:41:23Z</time>
      </trkpt>
      <trkpt lat="48.72544" lon="2.07414">
        <ele>163</ele>
        <time>2022-02-13T13:43:33Z</time>
      </trkpt>
      <trkpt lat="48.72659" lon="2.07505">
        <ele>164</ele>
        <time>2022-02-13T13:46:26Z</time>
      </trkpt>
      <trkpt lat="48.72827" lon="2.07646">
        <ele>165</ele>
        <time>2022-02-13T13:50:42Z</time>
      </trkpt>
      <trkpt lat="48.72799" lon="2.07734">
        <ele>165</ele>
        <time>2022-02-13T13:52:08Z</time>
      </trkpt>
      <trkpt lat="48.72922" lon="2.07839">
        <ele>163</ele>
        <time>2022-02-13T13:55:17Z</time>
      </trkpt>
      <trkpt lat="48.7292" lon="2.07963">
        <ele>163</ele>
        <time>2022-02-13T13:57:06Z</time>
      </trkpt>
      <trkpt lat="48.7289" lon="2.07965">
        <ele>164</ele>
        <time>2022-02-13T13:57:46Z</time>
      </trkpt>
      <trkpt lat="48.72856" lon="2.08093">
        <ele>163</ele>
        <time>2022-02-13T13:59:47Z</time>
      </trkpt>
      <trkpt lat="48.72869" lon="2.08129">
        <ele>163</ele>
        <time>2022-02-13T14:00:23Z</time>
      </trkpt>
      <trkpt lat="48.72888" lon="2.08138">
        <ele>162</ele>
        <time>2022-02-13T14:00:50Z</time>
      </trkpt>
      <trkpt lat="48.72977" lon="2.0812">
        <ele>161</ele>
        <time>2022-02-13T14:02:50Z</time>
      </trkpt>
      <trkpt lat="48.73021" lon="2.08096">
        <ele>160</ele>
        <time>2022-02-13T14:03:52Z</time>
      </trkpt>
      <trkpt lat="48.73021" lon="2.081">
        <ele>160</ele>
        <time>2022-02-13T14:03:56Z</time>
      </trkpt>
      <trkpt lat="48.73108" lon="2.08214">
        <ele>165</ele>
        <time>2022-02-13T14:06:29Z</time>
      </trkpt>
      <trkpt lat="48.72902" lon="2.08474">
        <ele>164</ele>
        <time>2022-02-13T14:12:27Z</time>
      </trkpt>
      <trkpt lat="48.72879" lon="2.08594">
        <ele>162</ele>
        <time>2022-02-13T14:14:17Z</time>
      </trkpt>
      <trkpt lat="48.72895" lon="2.08652">
        <ele>160</ele>
        <time>2022-02-13T14:15:12Z</time>
      </trkpt>
      <trkpt lat="48.72838" lon="2.08777">
        <ele>167</ele>
        <time>2022-02-13T14:17:26Z</time>
      </trkpt>
      <trkpt lat="48.72841" lon="2.08856">
        <ele>165</ele>
        <time>2022-02-13T14:18:36Z</time>
      </trkpt>
      <trkpt lat="48.72841" lon="2.08893">
        <ele>166</ele>
        <time>2022-02-13T14:19:08Z</time>
      </trkpt>
      <trkpt lat="48.72819" lon="2.08976">
        <ele>164</ele>
        <time>2022-02-13T14:20:27Z</time>
      </trkpt>
      <trkpt lat="48.7277" lon="2.09023">
        <ele>163</ele>
        <time>2022-02-13T14:21:44Z</time>
      </trkpt>
      <trkpt lat="48.72756" lon="2.09109">
        <ele>161</ele>
        <time>2022-02-13T14:23:02Z</time>
      </trkpt>
      <trkpt lat="48.72793" lon="2.09169">
        <ele>153</ele>
        <time>2022-02-13T14:24:15Z</time>
      </trkpt>
      <trkpt lat="48.72775" lon="2.09249">
        <ele>152</ele>
        <time>2022-02-13T14:25:29Z</time>
      </trkpt>
      <trkpt lat="48.72742" lon="2.09262">
        <ele>155</ele>
        <time>2022-02-13T14:26:15Z</time>
      </trkpt>
      <trkpt lat="48.727" lon="2.09388">
        <ele>152</ele>
        <time>2022-02-13T14:28:19Z</time>
      </trkpt>
      <trkpt lat="48.72646" lon="2.09485">
        <ele>149</ele>
        <time>2022-02-13T14:30:11Z</time>
      </trkpt>
      <trkpt lat="48.72633" lon="2.09545">
        <ele>145</ele>
        <time>2022-02-13T14:31:06Z</time>
      </trkpt>
      <trkpt lat="48.72577" lon="2.09519">
        <ele>151</ele>
        <time>2022-02-13T14:32:24Z</time>
      </trkpt>
      <trkpt lat="48.72555" lon="2.09558">
        <ele>149</ele>
        <time>2022-02-13T14:33:09Z</time>
      </trkpt>
      <trkpt lat="48.72729" lon="2.09659">
        <ele>127</ele>
        <time>2022-02-13T14:37:18Z</time>
      </trkpt>
      <trkpt lat="48.72742" lon="2.09811">
        <ele>113</ele>
        <time>2022-02-13T14:39:33Z</time>
      </trkpt>
      <trkpt lat="48.73011" lon="2.10045">
        <ele>105</ele>
        <time>2022-02-13T14:46:27Z</time>
      </trkpt>
      <trkpt lat="48.73001" lon="2.10264">
        <ele>121</ele>
        <time>2022-02-13T14:49:40Z</time>
      </trkpt>
      <trkpt lat="48.72943" lon="2.10532">
        <ele>115</ele>
        <time>2022-02-13T14:53:48Z</time>
      </trkpt>
      <trkpt lat="48.73028" lon="2.10291">
        <ele>128</ele>
        <time>2022-02-13T14:57:49Z</time>
      </trkpt>
      <trkpt lat="48.73106" lon="2.10227">
        <ele>141</ele>
        <time>2022-02-13T14:59:47Z</time>
      </trkpt>
      <trkpt lat="48.73276" lon="2.10341">
        <ele>155</ele>
        <time>2022-02-13T15:03:55Z</time>
      </trkpt>
      <trkpt lat="48.73267" lon="2.10171">
        <ele>154</ele>
        <time>2022-02-13T15:06:25Z</time>
      </trkpt>
      <trkpt lat="48.73297" lon="2.09965">
        <ele>153</ele>
        <time>2022-02-13T15:09:31Z</time>
      </trkpt>
      <trkpt lat="48.73354" lon="2.09787">
        <ele>152</ele>
        <time>2022-02-13T15:12:25Z</time>
      </trkpt>
      <trkpt lat="48.7342" lon="2.09798">
        <ele>157</ele>
        <time>2022-02-13T15:13:54Z</time>
      </trkpt>
      <trkpt lat="48.73529" lon="2.0962">
        <ele>158</ele>
        <time>2022-02-13T15:17:28Z</time>
      </trkpt>
      <trkpt lat="48.73615" lon="2.09513">
        <ele>157</ele>
        <time>2022-02-13T15:19:56Z</time>
      </trkpt>
      <trkpt lat="48.73669" lon="2.09463">
        <ele>157</ele>
        <time>2022-02-13T15:21:21Z</time>
      </trkpt>
      <trkpt lat="48.7374" lon="2.09468">
        <ele>156</ele>
        <time>2022-02-13T15:22:55Z</time>
      </trkpt>
      <trkpt lat="48.73816" lon="2.09386">
        <ele>156</ele>
        <time>2022-02-13T15:25:00Z</time>
      </trkpt>
      <trkpt lat="48.7387" lon="2.09159">
        <ele>153</ele>
        <time>2022-02-13T15:28:32Z</time>
      </trkpt>
      <trkpt lat="48.73866" lon="2.08976">
        <ele>156</ele>
        <time>2022-02-13T15:31:13Z</time>
      </trkpt>
      <trkpt lat="48.73887" lon="2.08768">
        <ele>155</ele>
        <time>2022-02-13T15:34:19Z</time>
      </trkpt>
      <trkpt lat="48.73966" lon="2.08706">
        <ele>156</ele>
        <time>2022-02-13T15:36:17Z</time>
      </trkpt>
      <trkpt lat="48.74084" lon="2.08704">
        <ele>158</ele>
        <time>2022-02-13T15:38:55Z</time>
      </trkpt>
      <trkpt lat="48.74166" lon="2.08614">
        <ele>155</ele>
        <time>2022-02-13T15:41:10Z</time>
      </trkpt>
      <trkpt lat="48.7414" lon="2.08577">
        <ele>153</ele>
        <time>2022-02-13T15:41:57Z</time>
      </trkpt>
      <trkpt lat="48.74194" lon="2.08302">
        <ele>148</ele>
        <time>2022-02-13T15:46:10Z</time>
      </trkpt>
      <trkpt lat="48.74235" lon="2.08322">
        <ele>155</ele>
        <time>2022-02-13T15:47:07Z</time>
      </trkpt>
      <trkpt lat="48.74273" lon="2.08217">
        <ele>159</ele>
        <time>2022-02-13T15:48:53Z</time>
      </trkpt>
      <trkpt lat="48.74237" lon="2.0812">
        <ele>150</ele>
        <time>2022-02-13T15:50:31Z</time>
      </trkpt>
      <trkpt lat="48.74412" lon="2.08127">
        <ele>158</ele>
        <time>2022-02-13T15:54:24Z</time>
      </trkpt>
      <trkpt lat="48.74457" lon="2.08088">
        <ele>156</ele>
        <time>2022-02-13T15:55:34Z</time>
      </trkpt>
      <trkpt lat="48.74525" lon="2.08122">
        <ele>156</ele>
        <time>2022-02-13T15:57:09Z</time>
      </trkpt>
      <trkpt lat="48.74535" lon="2.08021">
        <ele>154</ele>
        <time>2022-02-13T15:58:39Z</time>
      </trkpt>
      <trkpt lat="48.74491" lon="2.07968">
        <ele>155</ele>
        <time>2022-02-13T15:59:54Z</time>
      </trkpt>
      <trkpt lat="48.74399" lon="2.07937">
        <ele>152</ele>
        <time>2022-02-13T16:02:00Z</time>
      </trkpt>
      <trkpt lat="48.74364" lon="2.0785">
        <ele>149</ele>
        <time>2022-02-13T16:03:29Z</time>
      </trkpt>
      <trkpt lat="48.74363" lon="2.07828">
        <ele>149</ele>
        <time>2022-02-13T16:03:49Z</time>
      </trkpt>
      <trkpt lat="48.74532" lon="2.07433">
        <ele>157</ele>
        <time>2022-02-13T16:10:43Z</time>
      </trkpt>
      <trkpt lat="48.74571" lon="2.07148">
        <ele>146</ele>
        <time>2022-02-13T16:14:59Z</time>
      </trkpt>
      <trkpt lat="48.74584" lon="2.07099">
        <ele>148</ele>
        <time>2022-02-13T16:15:46Z</time>
      </trkpt>
      <trkpt lat="48.74583" lon="2.07045">
        <ele>146</ele>
        <time>2022-02-13T16:16:33Z</time>
      </trkpt>
      <trkpt lat="48.74531" lon="2.07032">
        <ele>135</ele>
        <time>2022-02-13T16:17:44Z</time>
      </trkpt>
      <trkpt lat="48.74511" lon="2.07003">
        <ele>130</ele>
        <time>2022-02-13T16:18:21Z</time>
      </trkpt>
      <trkpt lat="48.74546" lon="2.06901">
        <ele>137</ele>
        <time>2022-02-13T16:20:02Z</time>
      </trkpt>
      <trkpt lat="48.7451" lon="2.06778">
        <ele>127</ele>
        <time>2022-02-13T16:22:00Z</time>
      </trkpt>
      <trkpt lat="48.74538" lon="2.06692">
        <ele>129</ele>
        <time>2022-02-13T16:23:25Z</time>
      </trkpt>
      <trkpt lat="48.74627" lon="2.06771">
        <ele>148</ele>
        <time>2022-02-13T16:25:42Z</time>
      </trkpt>
      <trkpt lat="48.74626" lon="2.06845">
        <ele>151</ele>
        <time>2022-02-13T16:26:47Z</time>
      </trkpt>
      <trkpt lat="48.74758" lon="2.06962">
        <ele>164</ele>
        <time>2022-02-13T16:30:11Z</time>
      </trkpt>
      <trkpt lat="48.74819" lon="2.06641">
        <ele>166</ele>
        <time>2022-02-13T16:35:05Z</time>
      </trkpt>
      <trkpt lat="48.75043" lon="2.06206">
        <ele>165</ele>
        <time>2022-02-13T16:43:11Z</time>
      </trkpt>
    </trkseg>
  </trk>
</gpx>